Flight Track Log - Related Links

Times and Time Zones

All times are in EDT time to prevent confusion due to time zone crossing. See the AFR702 flight status page for this flight to view local times or setup timezone preferences in your user account.

Time Position Orientation Groundspeed Altitude Reporting Facility
EDT Latitude Longitude Course Direction KTS MPH feet Rate Location/Type
Tue 08:15:00 AM 48.5983 2.4475 189° South  Level Estimated
Tue 08:16:00 AM 48.4660 2.4151 189° South  Level Estimated
Tue 08:16:15 AM 48.9960 2.5606 189° South 179 206 600  Level FlightAware ADS-B
Tue 08:16:21 AM 48.9953 2.5524 263° West 181 208 800 2,727 Climbing FlightAware ADS-B
Tue 08:16:37 AM 48.9941 2.5325 265° West 180 207 1,600 2,625 Climbing FlightAware ADS-B
Tue 08:16:53 AM 48.9930 2.5129 265° West 177 204 2,200 2,000 Climbing FlightAware ADS-B
Tue 08:17:10 AM 48.9921 2.4904 267° West 185 213 2,700 1,765 Climbing FlightAware ADS-B
Tue 08:17:27 AM 48.9907 2.4695 264° West 183 211 3,200 1,500 Climbing FlightAware ADS-B
Tue 08:17:42 AM 48.9896 2.4496 265° West 195 224 3,500 1,034 Climbing FlightAware ADS-B
Tue 08:17:56 AM 48.9886 2.4287 266° West 211 243 3,700 1,000 Climbing FlightAware ADS-B
Tue 08:18:12 AM 48.9872 2.4048 265° West 226 260 4,000 1,161 Climbing FlightAware ADS-B
Tue 08:18:27 AM 48.9858 2.3797 265° West 240 276 4,300 1,200 Climbing FlightAware ADS-B
Tue 08:18:32 AM 48.9853 2.3707 265° West 247 284 4,400 1,200 Climbing FlightAware ADS-B
Tue 08:18:47 AM 48.9839 2.3432 266° West 262 302 4,700 1,500 Climbing FlightAware ADS-B
Tue 08:19:04 AM 48.9823 2.3128 265° West 271 312 5,200 2,063 Climbing FlightAware ADS-B
Tue 08:19:19 AM 48.9806 2.2828 265° West 274 315 5,800 2,438 Climbing FlightAware ADS-B
Tue 08:19:36 AM 48.9789 2.2504 265° West 277 319 6,500 2,364 Climbing FlightAware ADS-B
Tue 08:19:52 AM 48.9771 2.2203 265° West 281 323 7,100 2,182 Climbing FlightAware ADS-B
Tue 08:19:58 AM 48.9761 2.2085 263° West 283 326 7,300 2,000 Climbing FlightAware ADS-B
Tue 08:20:01 AM 48.9753 2.2016 260° West 284 327 7,400 2,400 Climbing FlightAware ADS-B
Tue 08:20:08 AM 48.9728 2.1879 254° West 286 329 7,700 2,400 Climbing FlightAware ADS-B
Tue 08:20:16 AM 48.9694 2.1727 251° West 288 331 8,000 2,160 Climbing FlightAware ADS-B
Tue 08:20:33 AM 48.9615 2.1402 250° West 291 335 8,600 2,063 Climbing FlightAware ADS-B
Tue 08:20:48 AM 48.9545 2.1123 249° West 295 339 9,100 2,200 Climbing FlightAware ADS-B
Tue 08:21:03 AM 48.9469 2.0827 249° West 295 339 9,700 2,333 Climbing FlightAware ADS-B
Tue 08:21:06 AM 48.9450 2.0765 245° Southwest 295 339 9,800 1,714 Climbing FlightAware ADS-B
Tue 08:21:10 AM 48.9428 2.0705 241° Southwest 296 341 9,900 1,714 Climbing FlightAware ADS-B
Tue 08:21:13 AM 48.9405 2.0652 237° Southwest 297 342 10,000 2,250 Climbing FlightAware ADS-B
Tue 08:21:18 AM 48.9357 2.0563 231° Southwest 299 344 10,200 1,500 Climbing FlightAware ADS-B
Tue 08:21:25 AM 48.9286 2.0463 223° Southwest 305 351 10,300 545 Climbing FlightAware ADS-B
Tue 08:21:29 AM 48.9237 2.0410 216° Southwest 308 354 10,300 667 Level FlightAware ADS-B
Tue 08:21:34 AM 48.9180 2.0363 209° Southwest 312 359 10,400 1,091 Climbing FlightAware ADS-B
Tue 08:21:40 AM 48.9091 2.0314 200° South 316 364 10,500 600 Climbing FlightAware ADS-B
Tue 08:21:44 AM 48.9044 2.0299 192° South 319 367 10,500 600 Level FlightAware ADS-B
Tue 08:21:50 AM 48.8950 2.0281 187° South 323 372 10,600 1,000 Climbing FlightAware ADS-B
Tue 08:22:20 AM 48.8477 2.0214 185° South 348 400 11,100 1,254 Climbing FlightAware ADS-B
Tue 08:22:57 AM 48.7870 2.0133 185° South 368 423 12,000 2,320 Climbing FlightAware ADS-B
Tue 08:23:35 AM 48.7240 2.0044 185° South 361 415 14,000 2,190 Climbing FlightAware ADS-B
Tue 08:24:00 AM 48.6812 1.9985 185° South 384 442 14,300 706 Climbing FlightAware ADS-B
Tue 08:24:09 AM 48.6660 1.9986 180° South 391 450 14,400 1,000 Climbing FlightAware ADS-B
Tue 08:24:18 AM 48.6499 2.0015 173° South 396 456 14,600 1,846 Climbing FlightAware ADS-B
Tue 08:24:35 AM 48.6190 2.0152 164° South 401 461 15,200 1,959 Climbing FlightAware ADS-B
Tue 08:25:07 AM 48.5636 2.0478 159° South 406 467 16,200 400 Climbing FlightAware ADS-B
Tue 08:25:35 AM 48.5149 2.0793 159° South 1 1 15,600 2,053 Descending FlightAware UK
Tue 08:25:45 AM 48.4969 2.0876 159° South 411 473 17,500 4,629 Climbing FlightAware ADS-B
Tue 08:26:10 AM 48.4498 2.1042 167° South 415 478 18,300 1,821 Climbing FlightAware ADS-B
Tue 08:26:41 AM 48.3905 2.1196 170° South 421 484 19,200 1,579 Climbing FlightAware ADS-B
Tue 08:27:07 AM 48.3408 2.1341 169° South 431 496 19,800 1,714 Climbing FlightAware ADS-B
Tue 08:27:37 AM 48.2819 2.1532 168° South 432 497 20,800 2,857 Climbing FlightAware ADS-B
Tue 08:28:10 AM 48.2198 2.1742 167° South 408 470 22,800 2,531 Climbing FlightAware ADS-B
Tue 08:28:41 AM 48.1635 2.1932 167° South 413 475 23,500 1,475 Climbing FlightAware ADS-B
Tue 08:29:11 AM 48.1071 2.2123 167° South 418 481 24,300 1,500 Climbing FlightAware ADS-B
Tue 08:29:41 AM 48.0491 2.2311 168° South 421 484 25,000 1,407 Climbing FlightAware ADS-B
Tue 08:30:32 AM 47.9660 2.2550 169° South 423 487 26,200 1,052 Climbing FlightAware ADS-B
Tue 08:33:00 AM 47.6395 2.1779 189° South  Level Estimated
Tue 08:33:12 AM 47.6430 2.3500 189° South 461 531 28,700  Level FlightAware ADS-B
Tue 08:34:52 AM 47.4084 2.4190 169° South 497 572 30,100 898 Climbing FlightAware ADS-B
Tue 08:35:39 AM 47.3010 2.4503 169° South 504 580 30,900 840 Climbing FlightAware ADS-B
Tue 08:37:22 AM 47.0790 2.5150 169° South 504 580 32,200 957 Climbing FlightAware ADS-B
Tue 08:37:57 AM 46.9870 2.5410 169° South 517 595 33,100 1,200 Climbing FlightAware ADS-B
Tue 08:39:02 AM 46.8300 2.5850 169° South 520 598 34,200 914 Climbing FlightAware ADS-B
Tue 08:39:42 AM 46.7370 2.6120 169° South 524 603 34,700 600 Climbing FlightAware ADS-B
Tue 08:40:22 AM 46.6420 2.6390 169° South 528 608 35,000 212 Climbing FlightAware ADS-B
Tue 08:41:07 AM 46.5410 2.6670 169° South 528 608 35,000  Level FlightAware ADS-B
Tue 08:41:47 AM 46.4380 2.6960 169° South 531 611 35,000  Level FlightAware ADS-B
Tue 08:42:32 AM 46.3320 2.7260 169° South 531 611 35,000  Level FlightAware ADS-B
Tue 08:43:12 AM 46.2300 2.7540 169° South 529 609 35,000  Level FlightAware ADS-B
Tue 08:43:57 AM 46.1300 2.7820 169° South 527 606 35,000  Level FlightAware ADS-B
Tue 08:44:37 AM 46.0300 2.8080 170° South 524 603 35,000  Level FlightAware ADS-B
Tue 08:45:17 AM 45.9350 2.8190 175° South 513 590 35,000  Level FlightAware ADS-B
Tue 08:46:02 AM 45.8280 2.8210 179° South 513 590 35,000  Level FlightAware ADS-B
Tue 08:46:42 AM 45.7350 2.8220 180° South 514 592 35,000  Level FlightAware ADS-B
Tue 08:47:27 AM 45.6250 2.8240 179° South 516 594 35,000  Level FlightAware ADS-B
Tue 08:48:07 AM 45.5310 2.8250 180° South 516 594 35,000  Level FlightAware ADS-B
Tue 08:48:47 AM 45.4350 2.8270 179° South 515 593 35,000  Level FlightAware ADS-B
Tue 08:49:22 AM 45.3510 2.8280 180° South 515 593 35,000  Level FlightAware ADS-B
Tue 08:50:12 AM 45.2360 2.8300 179° South 517 595 35,000  Level FlightAware ADS-B
Tue 08:50:57 AM 45.1310 2.8320 179° South 516 594 35,000  Level FlightAware ADS-B
Tue 08:51:37 AM 45.0320 2.8330 180° South 512 589 35,000  Level FlightAware ADS-B
Tue 08:52:32 AM 44.8980 2.8350 179° South 511 588 35,000  Level FlightAware ADS-B
Tue 08:53:17 AM 44.7980 2.8370 179° South 511 588 35,000  Level FlightAware ADS-B
Tue 08:53:57 AM 44.7030 2.8380 180° South 511 588 35,000  Level FlightAware ADS-B
Tue 08:54:52 AM 44.5700 2.8410 179° South 511 588 35,000  Level FlightAware ADS-B
Tue 08:55:32 AM 44.4750 2.8420 180° South 511 588 35,000  Level FlightAware ADS-B
Tue 08:56:17 AM 44.3670 2.8440 179° South 510 587 35,000  Level FlightAware ADS-B
Tue 08:56:57 AM 44.2730 2.8450 180° South 509 586 35,000  Level FlightAware ADS-B
Tue 08:57:42 AM 44.1700 2.8460 180° South 510 587 35,000  Level FlightAware ADS-B
Tue 08:58:22 AM 44.0740 2.8480 179° South 509 586 35,000  Level FlightAware ADS-B
Tue 08:59:02 AM 43.9820 2.8490 180° South 507 583 35,000  Level FlightAware ADS-B
Tue 08:59:47 AM 43.8760 2.8510 179° South 507 583 35,000  Level FlightAware ADS-B
Tue 09:00:32 AM 43.7700 2.8520 180° South 506 582 35,000  Level FlightAware ADS-B
Tue 09:01:12 AM 43.6760 2.8540 179° South 506 582 35,000  Level FlightAware ADS-B
Tue 09:01:52 AM 43.5830 2.8550 180° South 507 583 35,000  Level FlightAware ADS-B
Tue 09:02:32 AM 43.4910 2.8560 180° South 508 585 35,000  Level FlightAware ADS-B
Tue 09:03:17 AM 43.3820 2.8580 179° South 506 582 35,000  Level FlightAware ADS-B
Tue 09:03:57 AM 43.2870 2.8590 180° South 507 583 35,000  Level FlightAware ADS-B
Tue 09:04:42 AM 43.1860 2.8610 179° South 507 583 35,000  Level FlightAware ADS-B
Tue 09:05:22 AM 43.0890 2.8620 180° South 507 583 35,000  Level FlightAware ADS-B
Tue 09:06:07 AM 42.9840 2.8640 179° South 507 583 35,000  Level FlightAware ADS-B
Tue 09:06:47 AM 42.8890 2.8650 180° South 508 585 35,000  Level FlightAware ADS-B
Tue 09:07:27 AM 42.7990 2.8670 179° South 512 589 35,000  Level FlightAware ADS-B
Tue 09:08:12 AM 42.6950 2.8910 170° South 530 610 35,000  Level FlightAware ADS-B
Tue 09:08:52 AM 42.5970 2.9330 162° South 530 610 35,000  Level FlightAware ADS-B
Tue 09:09:37 AM 42.4900 2.9790 162° South 535 616 35,000  Level FlightAware ADS-B
Tue 09:10:17 AM 42.3960 3.0200 162° South 538 619 35,000  Level FlightAware ADS-B
Tue 09:10:57 AM 42.3000 3.0600 163° South 536 617 35,000  Level FlightAware ADS-B
Tue 09:11:42 AM 42.1960 3.1040 163° South 535 616 35,000  Level FlightAware ADS-B
Tue 09:12:22 AM 42.1030 3.1440 162° South 537 618 35,000  Level FlightAware ADS-B
Tue 09:13:02 AM 42.0060 3.1840 163° South 536 617 35,000  Level FlightAware ADS-B
Tue 09:13:47 AM 41.8950 3.2050 172° South 521 600 35,000  Level FlightAware ADS-B
Tue 09:14:27 AM 41.7990 3.2030 181° South 519 597 35,000  Level FlightAware ADS-B
Tue 09:15:07 AM 41.7020 3.1980 182° South 521 600 35,000  Level FlightAware ADS-B
Tue 09:15:52 AM 41.5960 3.1920 182° South 524 603 35,000  Level FlightAware ADS-B
Tue 09:16:32 AM 41.5020 3.1870 182° South 524 603 35,000  Level FlightAware ADS-B
Tue 09:17:12 AM 41.4030 3.1830 182° South 523 602 35,000  Level FlightAware ADS-B
Tue 09:17:57 AM 41.2920 3.1770 182° South 516 594 35,000  Level FlightAware ADS-B
Tue 09:18:37 AM 41.1970 3.1730 182° South 510 587 35,000  Level FlightAware ADS-B
Tue 09:19:22 AM 41.0940 3.1680 182° South 510 587 35,000  Level FlightAware ADS-B
Tue 09:20:02 AM 41.0000 3.1640 182° South 503 579 35,000  Level FlightAware ADS-B
Tue 09:20:42 AM 40.9070 3.1600 182° South 498 573 35,000  Level FlightAware ADS-B
Tue 09:21:27 AM 40.8050 3.1550 182° South 498 573 35,000  Level FlightAware ADS-B
Tue 09:22:07 AM 40.7160 3.1510 182° South 499 574 35,000  Level FlightAware ADS-B
Tue 09:22:52 AM 40.6150 3.1460 182° South 499 574 35,000  Level FlightAware ADS-B
Tue 09:23:32 AM 40.5230 3.1420 182° South 502 578 35,000  Level FlightAware ADS-B
Tue 09:24:12 AM 40.4300 3.1370 182° South 497 572 35,000  Level FlightAware ADS-B
Tue 09:24:57 AM 40.3240 3.1330 182° South 499 574 35,000  Level FlightAware ADS-B
Tue 09:25:42 AM 40.2220 3.1280 182° South 512 589 35,000  Level FlightAware ADS-B
Tue 09:26:22 AM 40.1230 3.1230 182° South 516 594 35,000  Level FlightAware ADS-B
Tue 09:27:07 AM 40.0160 3.1190 182° South 518 596 35,000  Level FlightAware ADS-B
Tue 09:27:47 AM 39.9170 3.0990 189° South 501 577 35,000  Level FlightAware ADS-B
Tue 09:28:27 AM 39.8410 3.0520 205° Southwest 476 548 35,000  Level FlightAware ADS-B
Tue 09:29:12 AM 39.7530 2.9880 209° Southwest 477 549 35,000  Level FlightAware ADS-B
Tue 09:29:52 AM 39.6780 2.9330 209° Southwest 478 550 35,000  Level FlightAware ADS-B
Tue 09:30:32 AM 39.5990 2.8760 209° Southwest 481 554 35,000  Level FlightAware ADS-B
Tue 09:31:17 AM 39.5110 2.8130 209° Southwest 479 551 35,000  Level FlightAware ADS-B
Tue 09:31:57 AM 39.4310 2.7620 206° Southwest 483 556 35,000  Level FlightAware ADS-B
Tue 09:32:42 AM 39.3340 2.7300 194° South 489 563 35,000  Level FlightAware ADS-B
Tue 09:33:22 AM 39.2450 2.7060 192° South 489 563 35,000  Level FlightAware ADS-B
Tue 09:34:02 AM 39.1570 2.6840 191° South 489 563 35,000  Level FlightAware ADS-B
Tue 09:34:47 AM 39.0550 2.6570 192° South 480 552 35,000  Level FlightAware ADS-B
Tue 09:35:27 AM 38.9670 2.6330 192° South 479 551 35,000  Level FlightAware ADS-B
Tue 09:36:12 AM 38.8660 2.6060 192° South 479 551 35,000  Level FlightAware ADS-B
Tue 09:36:52 AM 38.7820 2.5840 192° South 479 551 35,000  Level FlightAware ADS-B
Tue 09:37:32 AM 38.6890 2.5590 192° South 488 562 35,000  Level FlightAware ADS-B
Tue 09:38:17 AM 38.5910 2.5330 192° South 491 565 35,000  Level FlightAware ADS-B
Tue 09:38:57 AM 38.5010 2.5100 191° South 492 566 35,000  Level FlightAware ADS-B
Tue 09:39:37 AM 38.4110 2.4860 192° South 493 567 35,000  Level FlightAware ADS-B
Tue 09:40:22 AM 38.3110 2.4600 192° South 491 565 35,000  Level FlightAware ADS-B
Tue 09:41:02 AM 38.2230 2.4370 192° South 491 565 35,000  Level FlightAware ADS-B
Tue 09:41:42 AM 38.1430 2.4170 191° South 491 565 35,000  Level FlightAware ADS-B
Tue 09:42:22 AM 38.0420 2.3900 192° South 489 563 35,000  Level FlightAware ADS-B
Tue 09:43:07 AM 37.9520 2.3640 193° South 489 563 35,000  Level FlightAware ADS-B
Tue 09:43:52 AM 37.8450 2.3250 196° South 482 555 35,000  Level FlightAware ADS-B
Tue 09:44:32 AM 37.7570 2.2970 194° South 481 554 35,000  Level FlightAware ADS-B
Tue 09:45:17 AM 37.6580 2.2640 195° South 481 554 35,000  Level FlightAware ADS-B
Tue 09:45:52 AM 37.5840 2.2390 195° South 484 557 35,000  Level FlightAware ADS-B
Tue 09:46:42 AM 37.4750 2.2030 195° South 482 555 35,000  Level FlightAware ADS-B
Tue 09:47:22 AM 37.3880 2.1740 195° South 483 556 35,000  Level FlightAware ADS-B
Tue 09:48:02 AM 37.2980 2.1440 195° South 484 557 35,000  Level FlightAware ADS-B
Tue 09:48:47 AM 37.2140 2.1160 195° South 484 557 35,000  Level FlightAware ADS-B
Tue 09:49:27 AM 37.1400 2.0910 195° South 484 557 35,000  Level FlightAware ADS-B
Tue 09:50:07 AM 37.0670 2.0660 195° South 484 557 35,000  Level FlightAware ADS-B
Tue 09:50:47 AM 36.9930 2.0420 195° South 484 557 35,000  Level FlightAware ADS-B
Tue 09:51:37 AM 36.9010 2.0110 195° South 484 557 35,000  Level FlightAware ADS-B
Tue 09:52:17 AM 36.8280 1.9860 195° South 484 557 35,000  Level FlightAware ADS-B
Tue 09:52:57 AM 36.7540 1.9620 195° South 484 557 35,000  Level FlightAware ADS-B
Tue 09:53:37 AM 36.6810 1.9370 195° South 484 557 35,000  Level FlightAware ADS-B
Tue 09:54:17 AM 36.6070 1.9130 195° South 484 557 35,000  Level FlightAware ADS-B
Tue 09:54:57 AM 36.5340 1.8880 195° South 484 557 35,000  Level FlightAware ADS-B
Tue 09:55:47 AM 36.4420 1.8570 195° South 484 557 35,000  Level FlightAware ADS-B
Tue 09:56:27 AM 36.3680 1.8330 195° South 484 557 35,000  Level FlightAware ADS-B
Tue 09:57:07 AM 36.2950 1.8080 195° South 484 557 35,000  Level FlightAware ADS-B
Tue 09:57:47 AM 36.2210 1.7840 195° South 484 557 35,000  Level FlightAware ADS-B
Tue 10:00:00 AM 35.9468 1.7184 191° South  Level Estimated
Tue 10:01:00 AM 35.8231 1.6889 191° South  Level Estimated
Tue 10:02:00 AM 35.6994 1.6596 191° South  Level Estimated
Tue 10:03:00 AM 35.5756 1.6303 191° South  Level Estimated
Tue 10:04:00 AM 35.4523 1.6013 191° South  Level Estimated
Tue 10:05:00 AM 35.3289 1.5723 191° South  Level Estimated
Tue 10:06:00 AM 35.2055 1.5433 191° South  Level Estimated
Tue 10:07:00 AM 35.0821 1.5145 191° South  Level Estimated
Tue 10:08:00 AM 34.9587 1.4858 191° South  Level Estimated
Tue 10:09:00 AM 34.8353 1.4571 191° South  Level Estimated
Tue 10:10:00 AM 34.7119 1.4286 191° South  Level Estimated
Tue 10:11:00 AM 34.5884 1.4001 191° South  Level Estimated
Tue 10:12:00 AM 34.4650 1.3717 191° South  Level Estimated
Tue 10:13:00 AM 34.3416 1.3434 191° South  Level Estimated
Tue 10:14:00 AM 34.2181 1.3152 191° South  Level Estimated
Tue 10:15:00 AM 34.0947 1.2870 191° South  Level Estimated
Tue 10:16:00 AM 33.9712 1.2589 191° South  Level Estimated
Tue 10:17:00 AM 33.8477 1.2310 191° South  Level Estimated
Tue 10:18:00 AM 33.7243 1.2031 191° South  Level Estimated
Tue 10:19:00 AM 33.6008 1.1752 191° South  Level Estimated
Tue 10:20:00 AM 33.4773 1.1475 191° South  Level Estimated
Tue 10:21:00 AM 33.3538 1.1198 191° South  Level Estimated
Tue 10:22:00 AM 33.2303 1.0923 191° South  Level Estimated
Tue 10:23:00 AM 33.1068 1.0647 191° South  Level Estimated
Tue 10:24:00 AM 32.9833 1.0373 191° South  Level Estimated
Tue 10:25:00 AM 32.8598 1.0100 191° South  Level Estimated
Tue 10:26:00 AM 32.7363 0.9827 191° South  Level Estimated
Tue 10:27:00 AM 32.6128 0.9555 191° South  Level Estimated
Tue 10:28:00 AM 32.4892 0.9284 190° South  Level Estimated
Tue 10:29:00 AM 32.3657 0.9013 190° South  Level Estimated
Tue 10:30:00 AM 32.2421 0.8743 190° South  Level Estimated
Tue 10:31:00 AM 32.1186 0.8474 190° South  Level Estimated
Tue 10:32:00 AM 31.9950 0.8206 190° South  Level Estimated
Tue 10:33:00 AM 31.8715 0.7938 190° South  Level Estimated
Tue 10:34:00 AM 31.7479 0.7671 190° South  Level Estimated
Tue 10:35:00 AM 31.6243 0.7405 190° South  Level Estimated
Tue 10:36:00 AM 31.5008 0.7140 190° South  Level Estimated
Tue 10:37:00 AM 31.3772 0.6875 190° South  Level Estimated
Tue 10:38:00 AM 31.2536 0.6611 190° South  Level Estimated
Tue 10:39:00 AM 31.1300 0.6348 190° South  Level Estimated
Tue 10:40:00 AM 31.0064 0.6085 190° South  Level Estimated
Tue 10:41:00 AM 30.8828 0.5823 190° South  Level Estimated
Tue 10:42:00 AM 30.7592 0.5562 190° South  Level Estimated
Tue 10:43:00 AM 30.6356 0.5301 190° South  Level Estimated
Tue 10:44:00 AM 30.5120 0.5041 190° South  Level Estimated
Tue 10:45:00 AM 30.3883 0.4782 190° South  Level Estimated
Tue 10:46:00 AM 30.2647 0.4523 190° South  Level Estimated
Tue 10:47:00 AM 30.1411 0.4265 190° South  Level Estimated
Tue 10:48:00 AM 30.0174 0.4007 190° South  Level Estimated
Tue 10:49:00 AM 29.8938 0.3751 190° South  Level Estimated
Tue 10:50:00 AM 29.7701 0.3495 190° South  Level Estimated
Tue 10:51:00 AM 29.6465 0.3239 190° South  Level Estimated
Tue 10:52:00 AM 29.5228 0.2984 190° South  Level Estimated
Tue 10:53:00 AM 29.3992 0.2730 190° South  Level Estimated
Tue 10:54:00 AM 29.2755 0.2476 190° South  Level Estimated
Tue 10:55:00 AM 29.1518 0.2223 190° South  Level Estimated
Tue 10:56:00 AM 29.0282 0.1971 190° South  Level Estimated
Tue 10:57:00 AM 28.9045 0.1719 190° South  Level Estimated
Tue 10:58:00 AM 28.7808 0.1468 190° South  Level Estimated
Tue 10:59:00 AM 28.6571 0.1217 190° South  Level Estimated
Tue 11:00:00 AM 28.5334 0.0967 190° South  Level Estimated
Tue 11:01:00 AM 28.4097 0.0718 190° South  Level Estimated
Tue 11:02:00 AM 28.2860 0.0469 190° South  Level Estimated
Tue 11:03:00 AM 28.1623 0.0221 190° South  Level Estimated
Tue 11:04:00 AM 28.0386 -0.0027 190° South  Level Estimated
Tue 11:05:00 AM 27.9149 -0.0274 190° South  Level Estimated
Tue 11:06:00 AM 27.7911 -0.0520 190° South  Level Estimated
Tue 11:07:00 AM 27.6674 -0.0766 190° South  Level Estimated
Tue 11:08:00 AM 27.5437 -0.1012 190° South  Level Estimated
Tue 11:09:00 AM 27.4199 -0.1257 190° South  Level Estimated
Tue 11:10:00 AM 27.2962 -0.1501 190° South  Level Estimated
Tue 11:11:00 AM 27.1724 -0.1745 190° South  Level Estimated
Tue 11:12:00 AM 27.0487 -0.1988 190° South  Level Estimated
Tue 11:13:00 AM 26.9249 -0.2231 190° South  Level Estimated
Tue 11:14:00 AM 26.8012 -0.2473 190° South  Level Estimated
Tue 11:15:00 AM 26.6774 -0.2715 190° South  Level Estimated
Tue 11:16:00 AM 26.5536 -0.2956 190° South  Level Estimated
Tue 11:17:00 AM 26.4299 -0.3196 190° South  Level Estimated
Tue 11:18:00 AM 26.3061 -0.3436 190° South  Level Estimated
Tue 11:19:00 AM 26.1823 -0.3676 190° South  Level Estimated
Tue 11:20:00 AM 26.0585 -0.3915 190° South  Level Estimated
Tue 11:21:00 AM 25.9348 -0.4154 190° South  Level Estimated
Tue 11:22:00 AM 25.8110 -0.4392 190° South  Level Estimated
Tue 11:23:00 AM 25.6872 -0.4629 190° South  Level Estimated
Tue 11:24:00 AM 25.5634 -0.4866 190° South  Level Estimated
Tue 11:25:00 AM 25.4396 -0.5103 190° South  Level Estimated
Tue 11:26:00 AM 25.3158 -0.5339 190° South  Level Estimated
Tue 11:27:00 AM 25.1920 -0.5575 190° South  Level Estimated
Tue 11:28:00 AM 25.0681 -0.5810 190° South  Level Estimated
Tue 11:29:00 AM 24.9443 -0.6045 190° South  Level Estimated
Tue 11:30:00 AM 24.8205 -0.6279 190° South  Level Estimated
Tue 11:31:00 AM 24.6967 -0.6513 190° South  Level Estimated
Tue 11:32:00 AM 24.5729 -0.6746 190° South  Level Estimated
Tue 11:33:00 AM 24.4469 -0.6983 190° South  Level Estimated
Tue 11:34:00 AM 24.3209 -0.7219 190° South  Level Estimated
Tue 11:35:00 AM 24.1949 -0.7455 190° South  Level Estimated
Tue 11:36:00 AM 24.0689 -0.7690 190° South  Level Estimated
Tue 11:37:00 AM 23.9429 -0.7925 190° South  Level Estimated
Tue 11:38:00 AM 23.8169 -0.8160 190° South  Level Estimated
Tue 11:39:00 AM 23.6909 -0.8394 190° South  Level Estimated
Tue 11:40:00 AM 23.5649 -0.8627 190° South  Level Estimated
Tue 11:41:00 AM 23.4389 -0.8861 190° South  Level Estimated
Tue 11:42:00 AM 23.3129 -0.9093 190° South  Level Estimated
Tue 11:43:00 AM 23.1868 -0.9326 190° South  Level Estimated
Tue 11:44:00 AM 23.0608 -0.9557 190° South  Level Estimated
Tue 11:45:00 AM 22.9348 -0.9789 190° South  Level Estimated
Tue 11:46:00 AM 22.8088 -1.0020 190° South  Level Estimated
Tue 11:47:00 AM 22.6827 -1.0250 190° South  Level Estimated
Tue 11:48:00 AM 22.5567 -1.0481 190° South  Level Estimated
Tue 11:49:00 AM 22.4306 -1.0710 190° South  Level Estimated
Tue 11:50:00 AM 22.3046 -1.0940 190° South  Level Estimated
Tue 11:51:00 AM 22.1786 -1.1168 190° South  Level Estimated
Tue 11:52:00 AM 22.0525 -1.1397 190° South  Level Estimated
Tue 11:53:00 AM 21.9265 -1.1625 190° South  Level Estimated
Tue 11:54:00 AM 21.8004 -1.1853 190° South  Level Estimated
Tue 11:55:00 AM 21.6743 -1.2080 190° South  Level Estimated
Tue 11:56:00 AM 21.5483 -1.2307 190° South  Level Estimated
Tue 11:57:00 AM 21.4222 -1.2533 189° South  Level Estimated
Tue 11:58:00 AM 21.2961 -1.2759 189° South  Level Estimated
Tue 11:59:00 AM 21.1701 -1.2985 189° South  Level Estimated
Tue 12:00:00 PM 21.0440 -1.3211 189° South  Level Estimated
Tue 12:01:00 PM 20.9179 -1.3435 189° South  Level Estimated
Tue 12:02:00 PM 20.7918 -1.3660 189° South  Level Estimated
Tue 12:03:00 PM 20.6658 -1.3884 189° South  Level Estimated
Tue 12:04:00 PM 20.5397 -1.4108 189° South  Level Estimated
Tue 12:05:00 PM 20.4136 -1.4331 189° South  Level Estimated
Tue 12:06:00 PM 20.2875 -1.4554 189° South  Level Estimated
Tue 12:07:00 PM 20.1614 -1.4777 189° South  Level Estimated
Tue 12:08:00 PM 20.0353 -1.4999 189° South  Level Estimated
Tue 12:09:00 PM 19.9092 -1.5221 189° South  Level Estimated
Tue 12:10:00 PM 19.7831 -1.5443 189° South  Level Estimated
Tue 12:11:00 PM 19.6570 -1.5664 189° South  Level Estimated
Tue 12:12:00 PM 19.5309 -1.5885 189° South  Level Estimated
Tue 12:13:00 PM 19.4048 -1.6106 189° South  Level Estimated
Tue 12:14:00 PM 19.2787 -1.6326 189° South  Level Estimated
Tue 12:15:00 PM 19.1525 -1.6546 189° South  Level Estimated
Tue 12:16:00 PM 19.0264 -1.6766 189° South  Level Estimated
Tue 12:17:00 PM 18.9003 -1.6985 189° South  Level Estimated
Tue 12:18:00 PM 18.7742 -1.7204 189° South  Level Estimated
Tue 12:19:00 PM 18.6480 -1.7422 189° South  Level Estimated
Tue 12:20:00 PM 18.5219 -1.7641 189° South  Level Estimated
Tue 12:21:00 PM 18.3958 -1.7858 189° South  Level Estimated
Tue 12:22:00 PM 18.2696 -1.8076 189° South  Level Estimated
Tue 12:23:00 PM 18.1435 -1.8293 189° South  Level Estimated
Tue 12:24:00 PM 18.0174 -1.8510 189° South  Level Estimated
Tue 12:25:00 PM 17.8912 -1.8727 189° South  Level Estimated
Tue 12:26:00 PM 17.7651 -1.8943 189° South  Level Estimated
Tue 12:27:00 PM 17.6389 -1.9159 189° South  Level Estimated
Tue 12:28:00 PM 17.5128 -1.9375 189° South  Level Estimated
Tue 12:29:00 PM 17.3866 -1.9591 189° South  Level Estimated
Tue 12:30:00 PM 17.2605 -1.9806 189° South  Level Estimated
Tue 12:31:00 PM 17.1343 -2.0021 189° South  Level Estimated
Tue 12:32:00 PM 17.0082 -2.0236 189° South  Level Estimated
Tue 12:33:00 PM 16.8820 -2.0450 189° South  Level Estimated
Tue 12:34:00 PM 16.7558 -2.0664 189° South  Level Estimated
Tue 12:35:00 PM 16.6297 -2.0877 189° South  Level Estimated
Tue 12:36:00 PM 16.5035 -2.1091 189° South  Level Estimated
Tue 12:37:00 PM 16.3773 -2.1304 189° South  Level Estimated
Tue 12:38:00 PM 16.2512 -2.1517 189° South  Level Estimated
Tue 12:39:00 PM 16.1250 -2.1730 189° South  Level Estimated
Tue 12:40:00 PM 15.9988 -2.1942 189° South  Level Estimated
Tue 12:41:00 PM 15.8727 -2.2154 189° South  Level Estimated
Tue 12:42:00 PM 15.7465 -2.2366 189° South  Level Estimated
Tue 12:43:00 PM 15.6203 -2.2577 189° South  Level Estimated
Tue 12:44:00 PM 15.4941 -2.2789 189° South  Level Estimated
Tue 12:45:00 PM 15.3679 -2.3000 189° South  Level Estimated
Tue 12:46:00 PM 15.2417 -2.3210 189° South  Level Estimated
Tue 12:47:00 PM 15.1155 -2.3421 189° South  Level Estimated
Tue 12:48:00 PM 14.9894 -2.3631 189° South  Level Estimated
Tue 12:49:00 PM 14.8632 -2.3841 189° South  Level Estimated
Tue 12:50:00 PM 14.7370 -2.4051 189° South  Level Estimated
Tue 12:51:00 PM 14.6108 -2.4260 189° South  Level Estimated
Tue 12:52:00 PM 14.4846 -2.4470 189° South  Level Estimated
Tue 12:53:00 PM 14.3584 -2.4679 189° South  Level Estimated
Tue 12:54:00 PM 14.2322 -2.4888 189° South  Level Estimated
Tue 12:55:00 PM 14.1060 -2.5096 189° South  Level Estimated
Tue 12:56:00 PM 13.9798 -2.5305 189° South  Level Estimated
Tue 12:57:00 PM 13.8535 -2.5513 189° South  Level Estimated
Tue 12:58:00 PM 13.7273 -2.5721 189° South  Level Estimated
Tue 12:59:00 PM 13.6011 -2.5928 189° South  Level Estimated
Tue 01:00:00 PM 13.4749 -2.6136 189° South  Level Estimated
Tue 01:01:00 PM 13.3487 -2.6343 189° South  Level Estimated
Tue 01:02:00 PM 13.2225 -2.6550 189° South  Level Estimated
Tue 01:03:00 PM 13.0963 -2.6757 189° South  Level Estimated
Tue 01:04:00 PM 12.9700 -2.6963 189° South  Level Estimated
Tue 01:05:00 PM 12.8438 -2.7170 189° South  Level Estimated
Tue 01:06:00 PM 12.7176 -2.7376 189° South  Level Estimated
Tue 01:07:00 PM 12.5914 -2.7582 189° South  Level Estimated
Tue 01:08:00 PM 12.4652 -2.7788 189° South  Level Estimated
Tue 01:09:00 PM 12.3389 -2.7993 189° South  Level Estimated
Tue 01:10:00 PM 12.2127 -2.8199 189° South  Level Estimated
Tue 01:11:00 PM 12.0865 -2.8404 189° South  Level Estimated
Tue 01:12:00 PM 11.9602 -2.8609 189° South  Level Estimated
Tue 01:13:00 PM 11.8340 -2.8814 189° South  Level Estimated
Tue 01:14:00 PM 11.7078 -2.9018 189° South  Level Estimated
Tue 01:15:00 PM 11.5815 -2.9223 189° South  Level Estimated
Tue 01:16:00 PM 11.4553 -2.9427 189° South  Level Estimated
Tue 01:17:00 PM 11.3291 -2.9631 189° South  Level Estimated
Tue 01:18:00 PM 11.2028 -2.9835 189° South  Level Estimated
Tue 01:19:00 PM 11.0766 -3.0038 189° South  Level Estimated
Tue 01:20:00 PM 10.9503 -3.0242 189° South  Level Estimated
Tue 01:21:00 PM 10.8241 -3.0445 189° South  Level Estimated
Tue 01:22:00 PM 10.6978 -3.0648 189° South  Level Estimated
Tue 01:23:00 PM 10.5716 -3.0851 189° South  Level Estimated
Tue 01:24:00 PM 10.4453 -3.1054 189° South  Level Estimated
Tue 01:25:00 PM 10.3191 -3.1257 189° South  Level Estimated
Tue 01:26:00 PM 10.1928 -3.1459 189° South  Level Estimated
Tue 01:27:00 PM 10.0666 -3.1662 189° South  Level Estimated
Tue 01:28:00 PM 9.9403 -3.1864 189° South  Level Estimated
Tue 01:29:00 PM 9.8141 -3.2066 189° South  Level Estimated
Tue 01:30:00 PM 9.6878 -3.2268 189° South  Level Estimated
Tue 01:31:00 PM 9.5616 -3.2469 189° South  Level Estimated
Tue 01:32:00 PM 9.4353 -3.2671 189° South  Level Estimated
Tue 01:33:00 PM 9.3090 -3.2873 189° South  Level Estimated
Tue 01:34:00 PM 9.1842 -3.3071 189° South  Level Estimated
Tue 01:35:00 PM 9.0594 -3.3270 189° South  Level Estimated
Tue 01:36:00 PM 8.9346 -3.3469 189° South  Level Estimated
Tue 01:37:00 PM 8.8098 -3.3668 189° South  Level Estimated
Tue 01:38:00 PM 8.6849 -3.3866 189° South  Level Estimated
Tue 01:39:00 PM 8.5601 -3.4064 189° South  Level Estimated
Tue 01:40:00 PM 8.4353 -3.4262 189° South  Level Estimated
Tue 01:41:00 PM 8.3105 -3.4460 189° South  Level Estimated
Tue 01:42:00 PM 8.1857 -3.4658 189° South  Level Estimated
Tue 01:43:00 PM 8.0608 -3.4856 189° South  Level Estimated
Tue 01:44:00 PM 7.9360 -3.5054 189° South  Level Estimated
Tue 01:45:00 PM 7.8112 -3.5251 189° South  Level Estimated
Tue 01:46:00 PM 7.6864 -3.5449 189° South  Level Estimated
Tue 01:47:00 PM 7.5615 -3.5646 189° South  Level Estimated
Tue 01:48:00 PM 7.4367 -3.5843 189° South  Level Estimated
Tue 01:49:00 PM 7.3119 -3.6040 189° South  Level Estimated
Tue 01:50:00 PM 7.1870 -3.6237 189° South  Level Estimated
Tue 01:51:00 PM 7.0622 -3.6434 189° South  Level Estimated
Tue 01:52:00 PM 6.9374 -3.6631 189° South  Level Estimated
Tue 01:53:00 PM 6.8126 -3.6827 189° South  Level Estimated
Tue 01:54:00 PM 6.6877 -3.7024 189° South  Level Estimated
Tue 01:55:00 PM 6.5629 -3.7220 189° South  Level Estimated
Tue 01:56:00 PM 6.4381 -3.7417 189° South  Level Estimated
Tue 01:57:00 PM 6.3132 -3.7613 189° South  Level Estimated
Tue 01:58:00 PM 6.1887 -3.7809 189° South  Level Estimated
Tue 01:59:00 PM 6.0643 -3.8004 189° South  Level Estimated
Tue 02:00:00 PM 5.9398 -3.8200 189° South  Level Estimated
Tue 02:01:00 PM 5.8153 -3.8395 189° South  Level Estimated
Tue 02:02:00 PM 5.6908 -3.8590 189° South  Level Estimated
Tue 02:03:00 PM 5.5663 -3.8785 189° South  Level Estimated
Tue 02:04:00 PM 5.4419 -3.8980 189° South  Level Estimated
Tue 02:05:00 PM 5.3174 -3.9175 189° South  Level Estimated

Login

Don't have an account? Register now (free) for customized features, flight alerts, and more!